sensor_id;sensor_type;location;lat;lon;timestamp;P1;durP1;ratioP1;P2;durP2;ratioP2
14139;SDS011;7150;53.514;9.988;2022-07-29T00:00:37;3.13;;;1.17;;
14139;SDS011;7150;53.514;9.988;2022-07-29T00:03:03;1.80;;;1.43;;
14139;SDS011;7150;53.514;9.988;2022-07-29T00:05:28;1.77;;;1.03;;
14139;SDS011;7150;53.514;9.988;2022-07-29T00:07:54;2.00;;;1.50;;
14139;SDS011;7150;53.514;9.988;2022-07-29T00:10:19;1.33;;;1.20;;
14139;SDS011;7150;53.514;9.988;2022-07-29T00:12:45;1.57;;;1.23;;
14139;SDS011;7150;53.514;9.988;2022-07-29T00:15:11;2.10;;;1.20;;
14139;SDS011;7150;53.514;9.988;2022-07-29T00:17:37;1.80;;;1.00;;
14139;SDS011;7150;53.514;9.988;2022-07-29T00:20:02;1.97;;;1.27;;
14139;SDS011;7150;53.514;9.988;2022-07-29T00:22:29;2.27;;;1.30;;
14139;SDS011;7150;53.514;9.988;2022-07-29T00:24:54;2.10;;;1.30;;
14139;SDS011;7150;53.514;9.988;2022-07-29T00:27:20;1.83;;;1.20;;
14139;SDS011;7150;53.514;9.988;2022-07-29T00:29:46;1.70;;;1.33;;
14139;SDS011;7150;53.514;9.988;2022-07-29T00:32:11;1.83;;;1.37;;
14139;SDS011;7150;53.514;9.988;2022-07-29T00:34:37;1.97;;;1.20;;
14139;SDS011;7150;53.514;9.988;2022-07-29T00:37:21;1.47;;;1.20;;
14139;SDS011;7150;53.514;9.988;2022-07-29T00:39:46;1.43;;;1.20;;
14139;SDS011;7150;53.514;9.988;2022-07-29T00:42:12;2.03;;;1.30;;
14139;SDS011;7150;53.514;9.988;2022-07-29T00:44:38;1.77;;;1.20;;
14139;SDS011;7150;53.514;9.988;2022-07-29T00:47:04;2.37;;;1.40;;
14139;SDS011;7150;53.514;9.988;2022-07-29T00:49:30;1.90;;;1.20;;
14139;SDS011;7150;53.514;9.988;2022-07-29T00:51:56;1.30;;;1.20;;
14139;SDS011;7150;53.514;9.988;2022-07-29T00:54:22;2.27;;;1.27;;
14139;SDS011;7150;53.514;9.988;2022-07-29T00:56:48;2.10;;;1.40;;
14139;SDS011;7150;53.514;9.988;2022-07-29T00:59:14;0.90;;;0.90;;
14139;SDS011;7150;53.514;9.988;2022-07-29T01:01:39;1.30;;;1.10;;
14139;SDS011;7150;53.514;9.988;2022-07-29T01:04:05;1.67;;;1.30;;
14139;SDS011;7150;53.514;9.988;2022-07-29T01:06:31;2.00;;;1.40;;
14139;SDS011;7150;53.514;9.988;2022-07-29T01:08:58;1.30;;;1.10;;
14139;SDS011;7150;53.514;9.988;2022-07-29T01:11:25;2.00;;;1.40;;
14139;SDS011;7150;53.514;9.988;2022-07-29T01:13:51;1.77;;;1.17;;
14139;SDS011;7150;53.514;9.988;2022-07-29T01:16:29;1.97;;;1.20;;
14139;SDS011;7150;53.514;9.988;2022-07-29T01:18:58;1.73;;;1.30;;
14139;SDS011;7150;53.514;9.988;2022-07-29T01:21:54;1.30;;;1.20;;
14139;SDS011;7150;53.514;9.988;2022-07-29T01:29:45;2.80;;;1.80;;
14139;SDS011;7150;53.514;9.988;2022-07-29T01:32:18;1.77;;;1.30;;
14139;SDS011;7150;53.514;9.988;2022-07-29T01:34:54;1.60;;;1.27;;
14139;SDS011;7150;53.514;9.988;2022-07-29T01:37:28;2.03;;;1.47;;
14139;SDS011;7150;53.514;9.988;2022-07-29T01:39:58;3.13;;;1.50;;
14139;SDS011;7150;53.514;9.988;2022-07-29T01:45:02;4.03;;;1.50;;
14139;SDS011;7150;53.514;9.988;2022-07-29T01:47:45;2.53;;;1.43;;
14139;SDS011;7150;53.514;9.988;2022-07-29T01:50:21;1.90;;;1.27;;
14139;SDS011;7150;53.514;9.988;2022-07-29T01:52:56;2.53;;;1.37;;
14139;SDS011;7150;53.514;9.988;2022-07-29T01:55:25;2.30;;;1.43;;
14139;SDS011;7150;53.514;9.988;2022-07-29T01:57:54;1.73;;;1.40;;
14139;SDS011;7150;53.514;9.988;2022-07-29T02:00:22;2.50;;;2.00;;
14139;SDS011;7150;53.514;9.988;2022-07-29T02:02:48;1.97;;;1.33;;
14139;SDS011;7150;53.514;9.988;2022-07-29T02:05:18;3.23;;;1.50;;
14139;SDS011;7150;53.514;9.988;2022-07-29T02:07:48;4.00;;;1.50;;
14139;SDS011;7150;53.514;9.988;2022-07-29T02:10:16;2.47;;;1.60;;
14139;SDS011;7150;53.514;9.988;2022-07-29T02:12:46;1.70;;;1.20;;
14139;SDS011;7150;53.514;9.988;2022-07-29T02:15:13;2.00;;;1.50;;
14139;SDS011;7150;53.514;9.988;2022-07-29T02:17:45;2.70;;;1.40;;
14139;SDS011;7150;53.514;9.988;2022-07-29T02:20:16;2.93;;;2.13;;
14139;SDS011;7150;53.514;9.988;2022-07-29T02:22:42;1.90;;;1.20;;
14139;SDS011;7150;53.514;9.988;2022-07-29T02:25:10;2.13;;;1.30;;
14139;SDS011;7150;53.514;9.988;2022-07-29T02:27:37;2.67;;;1.60;;
14139;SDS011;7150;53.514;9.988;2022-07-29T02:30:04;4.33;;;1.70;;
14139;SDS011;7150;53.514;9.988;2022-07-29T02:32:32;3.13;;;1.40;;
14139;SDS011;7150;53.514;9.988;2022-07-29T02:35:00;2.47;;;1.50;;
14139;SDS011;7150;53.514;9.988;2022-07-29T02:37:27;2.67;;;1.73;;
14139;SDS011;7150;53.514;9.988;2022-07-29T02:39:54;2.27;;;1.60;;
14139;SDS011;7150;53.514;9.988;2022-07-29T02:42:21;2.90;;;1.57;;
14139;SDS011;7150;53.514;9.988;2022-07-29T02:44:48;2.70;;;1.77;;
14139;SDS011;7150;53.514;9.988;2022-07-29T02:47:23;2.37;;;1.47;;
14139;SDS011;7150;53.514;9.988;2022-07-29T02:50:38;2.00;;;1.60;;
14139;SDS011;7150;53.514;9.988;2022-07-29T02:52:53;2.30;;;1.30;;
14139;SDS011;7150;53.514;9.988;2022-07-29T02:55:30;3.57;;;1.50;;
14139;SDS011;7150;53.514;9.988;2022-07-29T02:58:00;1.90;;;1.40;;
14139;SDS011;7150;53.514;9.988;2022-07-29T03:00:44;1.27;;;1.10;;
14139;SDS011;7150;53.514;9.988;2022-07-29T03:03:13;1.80;;;1.50;;
14139;SDS011;7150;53.514;9.988;2022-07-29T03:05:41;2.57;;;1.63;;
14139;SDS011;7150;53.514;9.988;2022-07-29T03:08:07;3.03;;;1.43;;
14139;SDS011;7150;53.514;9.988;2022-07-29T03:10:35;2.90;;;1.70;;
14139;SDS011;7150;53.514;9.988;2022-07-29T03:13:04;3.27;;;1.57;;
14139;SDS011;7150;53.514;9.988;2022-07-29T03:15:30;2.70;;;1.60;;
14139;SDS011;7150;53.514;9.988;2022-07-29T03:17:57;1.93;;;1.40;;
14139;SDS011;7150;53.514;9.988;2022-07-29T03:20:24;1.80;;;1.37;;
14139;SDS011;7150;53.514;9.988;2022-07-29T03:22:50;2.70;;;1.57;;
14139;SDS011;7150;53.514;9.988;2022-07-29T03:25:17;2.07;;;1.40;;
14139;SDS011;7150;53.514;9.988;2022-07-29T03:27:43;1.87;;;1.47;;
14139;SDS011;7150;53.514;9.988;2022-07-29T03:30:10;1.90;;;1.40;;
14139;SDS011;7150;53.514;9.988;2022-07-29T03:32:36;2.93;;;1.60;;
14139;SDS011;7150;53.514;9.988;2022-07-29T03:35:03;1.50;;;1.40;;
14139;SDS011;7150;53.514;9.988;2022-07-29T03:37:29;3.43;;;1.50;;
14139;SDS011;7150;53.514;9.988;2022-07-29T03:39:55;2.80;;;1.80;;
14139;SDS011;7150;53.514;9.988;2022-07-29T03:42:23;4.23;;;2.00;;
14139;SDS011;7150;53.514;9.988;2022-07-29T03:44:51;2.80;;;1.73;;
14139;SDS011;7150;53.514;9.988;2022-07-29T03:47:20;2.93;;;1.57;;
14139;SDS011;7150;53.514;9.988;2022-07-29T03:49:51;3.17;;;1.53;;
14139;SDS011;7150;53.514;9.988;2022-07-29T03:52:18;2.23;;;1.30;;
14139;SDS011;7150;53.514;9.988;2022-07-29T03:54:45;2.37;;;1.23;;
14139;SDS011;7150;53.514;9.988;2022-07-29T03:57:11;4.23;;;1.70;;
14139;SDS011;7150;53.514;9.988;2022-07-29T03:59:37;3.10;;;1.50;;
14139;SDS011;7150;53.514;9.988;2022-07-29T04:02:04;4.03;;;1.70;;
14139;SDS011;7150;53.514;9.988;2022-07-29T04:04:33;1.90;;;1.53;;
14139;SDS011;7150;53.514;9.988;2022-07-29T04:06:59;1.83;;;1.30;;
14139;SDS011;7150;53.514;9.988;2022-07-29T04:09:25;1.60;;;1.43;;
14139;SDS011;7150;53.514;9.988;2022-07-29T04:11:50;1.97;;;1.57;;
14139;SDS011;7150;53.514;9.988;2022-07-29T04:14:16;3.00;;;1.77;;
14139;SDS011;7150;53.514;9.988;2022-07-29T04:16:42;2.00;;;1.50;;
14139;SDS011;7150;53.514;9.988;2022-07-29T04:19:07;1.83;;;1.50;;
14139;SDS011;7150;53.514;9.988;2022-07-29T04:21:37;2.10;;;1.50;;
14139;SDS011;7150;53.514;9.988;2022-07-29T04:24:05;2.20;;;1.50;;
14139;SDS011;7150;53.514;9.988;2022-07-29T04:26:32;2.93;;;1.67;;
14139;SDS011;7150;53.514;9.988;2022-07-29T04:28:57;2.10;;;1.30;;
14139;SDS011;7150;53.514;9.988;2022-07-29T04:31:23;2.30;;;1.40;;
14139;SDS011;7150;53.514;9.988;2022-07-29T04:33:48;2.10;;;1.47;;
14139;SDS011;7150;53.514;9.988;2022-07-29T04:36:14;3.57;;;1.60;;
14139;SDS011;7150;53.514;9.988;2022-07-29T04:38:39;2.67;;;1.60;;
14139;SDS011;7150;53.514;9.988;2022-07-29T04:41:05;2.13;;;1.43;;
14139;SDS011;7150;53.514;9.988;2022-07-29T04:43:32;3.17;;;1.60;;
14139;SDS011;7150;53.514;9.988;2022-07-29T04:45:58;3.60;;;1.97;;
14139;SDS011;7150;53.514;9.988;2022-07-29T04:48:24;2.77;;;1.63;;
14139;SDS011;7150;53.514;9.988;2022-07-29T04:50:50;2.00;;;1.53;;
14139;SDS011;7150;53.514;9.988;2022-07-29T04:53:15;2.07;;;1.50;;
14139;SDS011;7150;53.514;9.988;2022-07-29T04:55:41;2.20;;;1.77;;
14139;SDS011;7150;53.514;9.988;2022-07-29T04:58:06;4.00;;;1.60;;
14139;SDS011;7150;53.514;9.988;2022-07-29T05:00:32;3.17;;;1.60;;
14139;SDS011;7150;53.514;9.988;2022-07-29T05:02:58;2.87;;;1.60;;
14139;SDS011;7150;53.514;9.988;2022-07-29T05:05:24;3.07;;;1.63;;
14139;SDS011;7150;53.514;9.988;2022-07-29T05:07:49;2.30;;;1.53;;
14139;SDS011;7150;53.514;9.988;2022-07-29T05:10:15;2.63;;;1.43;;
14139;SDS011;7150;53.514;9.988;2022-07-29T05:12:40;2.33;;;1.60;;
14139;SDS011;7150;53.514;9.988;2022-07-29T05:15:06;2.13;;;1.70;;
14139;SDS011;7150;53.514;9.988;2022-07-29T05:17:32;6.20;;;2.40;;
14139;SDS011;7150;53.514;9.988;2022-07-29T05:19:57;3.13;;;1.77;;
14139;SDS011;7150;53.514;9.988;2022-07-29T05:22:23;2.73;;;1.73;;
14139;SDS011;7150;53.514;9.988;2022-07-29T05:24:48;2.27;;;1.57;;
14139;SDS011;7150;53.514;9.988;2022-07-29T05:27:14;3.37;;;1.90;;
14139;SDS011;7150;53.514;9.988;2022-07-29T05:29:39;4.43;;;1.80;;
14139;SDS011;7150;53.514;9.988;2022-07-29T05:32:05;2.73;;;1.50;;
14139;SDS011;7150;53.514;9.988;2022-07-29T05:34:31;4.80;;;2.10;;
14139;SDS011;7150;53.514;9.988;2022-07-29T05:36:56;3.10;;;2.00;;
14139;SDS011;7150;53.514;9.988;2022-07-29T05:39:22;2.80;;;1.63;;
14139;SDS011;7150;53.514;9.988;2022-07-29T05:41:48;3.50;;;1.90;;
14139;SDS011;7150;53.514;9.988;2022-07-29T05:44:14;4.83;;;1.97;;
14139;SDS011;7150;53.514;9.988;2022-07-29T05:46:39;4.07;;;1.80;;
14139;SDS011;7150;53.514;9.988;2022-07-29T05:49:05;3.47;;;1.60;;
14139;SDS011;7150;53.514;9.988;2022-07-29T05:51:31;2.97;;;1.60;;
14139;SDS011;7150;53.514;9.988;2022-07-29T05:53:57;2.73;;;1.50;;
14139;SDS011;7150;53.514;9.988;2022-07-29T05:56:23;1.97;;;1.43;;
14139;SDS011;7150;53.514;9.988;2022-07-29T05:58:49;2.53;;;1.40;;
14139;SDS011;7150;53.514;9.988;2022-07-29T06:01:15;2.03;;;1.37;;
14139;SDS011;7150;53.514;9.988;2022-07-29T06:03:41;2.73;;;1.23;;
14139;SDS011;7150;53.514;9.988;2022-07-29T06:06:07;2.03;;;1.40;;
14139;SDS011;7150;53.514;9.988;2022-07-29T06:08:33;3.17;;;1.60;;
14139;SDS011;7150;53.514;9.988;2022-07-29T06:10:59;1.67;;;1.40;;
14139;SDS011;7150;53.514;9.988;2022-07-29T06:13:25;2.37;;;1.40;;
14139;SDS011;7150;53.514;9.988;2022-07-29T06:15:50;1.77;;;1.20;;
14139;SDS011;7150;53.514;9.988;2022-07-29T06:18:16;2.17;;;1.50;;
14139;SDS011;7150;53.514;9.988;2022-07-29T06:20:41;2.17;;;1.37;;
14139;SDS011;7150;53.514;9.988;2022-07-29T06:23:07;1.73;;;1.50;;
14139;SDS011;7150;53.514;9.988;2022-07-29T06:25:32;1.53;;;1.30;;
14139;SDS011;7150;53.514;9.988;2022-07-29T06:28:00;1.70;;;1.50;;
14139;SDS011;7150;53.514;9.988;2022-07-29T06:30:26;2.33;;;1.73;;
14139;SDS011;7150;53.514;9.988;2022-07-29T06:32:51;2.43;;;1.40;;
14139;SDS011;7150;53.514;9.988;2022-07-29T06:35:17;3.17;;;1.53;;
14139;SDS011;7150;53.514;9.988;2022-07-29T06:37:43;2.20;;;1.20;;
14139;SDS011;7150;53.514;9.988;2022-07-29T06:40:08;3.00;;;1.50;;
14139;SDS011;7150;53.514;9.988;2022-07-29T06:42:53;2.87;;;1.20;;
14139;SDS011;7150;53.514;9.988;2022-07-29T06:45:19;2.77;;;1.53;;
14139;SDS011;7150;53.514;9.988;2022-07-29T06:47:44;1.30;;;1.03;;
14139;SDS011;7150;53.514;9.988;2022-07-29T06:50:10;1.67;;;1.30;;
14139;SDS011;7150;53.514;9.988;2022-07-29T06:52:37;1.73;;;1.40;;
14139;SDS011;7150;53.514;9.988;2022-07-29T06:55:03;1.53;;;1.10;;
14139;SDS011;7150;53.514;9.988;2022-07-29T06:57:29;1.40;;;1.10;;
14139;SDS011;7150;53.514;9.988;2022-07-29T06:59:58;2.07;;;1.40;;
14139;SDS011;7150;53.514;9.988;2022-07-29T07:02:24;1.80;;;1.20;;
14139;SDS011;7150;53.514;9.988;2022-07-29T07:04:49;1.37;;;1.07;;
14139;SDS011;7150;53.514;9.988;2022-07-29T07:07:15;3.53;;;1.47;;
14139;SDS011;7150;53.514;9.988;2022-07-29T07:09:40;1.90;;;1.30;;
14139;SDS011;7150;53.514;9.988;2022-07-29T07:12:06;2.87;;;1.40;;
14139;SDS011;7150;53.514;9.988;2022-07-29T07:14:32;2.70;;;1.30;;
14139;SDS011;7150;53.514;9.988;2022-07-29T07:16:58;2.90;;;1.40;;
14139;SDS011;7150;53.514;9.988;2022-07-29T07:19:28;2.40;;;1.30;;
14139;SDS011;7150;53.514;9.988;2022-07-29T07:21:53;1.80;;;1.27;;
14139;SDS011;7150;53.514;9.988;2022-07-29T07:24:19;1.57;;;1.20;;
14139;SDS011;7150;53.514;9.988;2022-07-29T07:26:45;2.33;;;1.20;;
14139;SDS011;7150;53.514;9.988;2022-07-29T07:29:11;1.50;;;1.10;;
14139;SDS011;7150;53.514;9.988;2022-07-29T07:31:36;4.10;;;1.50;;
14139;SDS011;7150;53.514;9.988;2022-07-29T07:34:03;2.00;;;1.27;;
14139;SDS011;7150;53.514;9.988;2022-07-29T07:36:28;1.87;;;1.33;;
14139;SDS011;7150;53.514;9.988;2022-07-29T07:38:54;1.33;;;1.23;;
14139;SDS011;7150;53.514;9.988;2022-07-29T07:41:20;2.70;;;1.67;;
14139;SDS011;7150;53.514;9.988;2022-07-29T07:43:45;2.67;;;1.30;;
14139;SDS011;7150;53.514;9.988;2022-07-29T07:46:11;1.37;;;1.17;;
14139;SDS011;7150;53.514;9.988;2022-07-29T07:48:37;1.40;;;1.10;;
14139;SDS011;7150;53.514;9.988;2022-07-29T07:51:02;2.40;;;1.50;;
14139;SDS011;7150;53.514;9.988;2022-07-29T07:53:28;1.93;;;1.10;;
14139;SDS011;7150;53.514;9.988;2022-07-29T07:55:54;1.50;;;1.17;;
14139;SDS011;7150;53.514;9.988;2022-07-29T07:58:20;1.80;;;1.27;;
14139;SDS011;7150;53.514;9.988;2022-07-29T08:00:45;1.23;;;1.13;;
14139;SDS011;7150;53.514;9.988;2022-07-29T08:03:12;2.50;;;1.13;;
14139;SDS011;7150;53.514;9.988;2022-07-29T08:05:38;1.57;;;1.37;;
14139;SDS011;7150;53.514;9.988;2022-07-29T08:08:05;1.87;;;1.17;;
14139;SDS011;7150;53.514;9.988;2022-07-29T08:10:31;1.43;;;1.00;;
14139;SDS011;7150;53.514;9.988;2022-07-29T08:13:29;1.70;;;1.30;;
14139;SDS011;7150;53.514;9.988;2022-07-29T08:15:55;1.33;;;1.23;;
14139;SDS011;7150;53.514;9.988;2022-07-29T08:18:22;2.23;;;1.50;;
14139;SDS011;7150;53.514;9.988;2022-07-29T08:20:49;1.00;;;0.90;;
14139;SDS011;7150;53.514;9.988;2022-07-29T08:23:14;1.83;;;1.10;;
14139;SDS011;7150;53.514;9.988;2022-07-29T08:25:40;1.40;;;1.07;;
14139;SDS011;7150;53.514;9.988;2022-07-29T08:28:06;1.20;;;0.87;;
14139;SDS011;7150;53.514;9.988;2022-07-29T08:30:32;1.43;;;1.07;;
14139;SDS011;7150;53.514;9.988;2022-07-29T08:32:58;1.43;;;0.83;;
14139;SDS011;7150;53.514;9.988;2022-07-29T08:35:24;2.00;;;1.03;;
14139;SDS011;7150;53.514;9.988;2022-07-29T08:37:50;2.47;;;1.07;;
14139;SDS011;7150;53.514;9.988;2022-07-29T08:40:17;1.10;;;1.00;;
14139;SDS011;7150;53.514;9.988;2022-07-29T08:42:43;2.40;;;0.80;;
14139;SDS011;7150;53.514;9.988;2022-07-29T08:45:08;1.20;;;1.00;;
14139;SDS011;7150;53.514;9.988;2022-07-29T08:47:34;1.47;;;0.90;;
14139;SDS011;7150;53.514;9.988;2022-07-29T08:50:04;1.53;;;1.20;;
14139;SDS011;7150;53.514;9.988;2022-07-29T08:52:31;0.93;;;0.93;;
14139;SDS011;7150;53.514;9.988;2022-07-29T08:54:59;1.40;;;1.10;;
14139;SDS011;7150;53.514;9.988;2022-07-29T08:57:25;1.00;;;0.90;;
14139;SDS011;7150;53.514;9.988;2022-07-29T08:59:51;1.27;;;1.10;;
14139;SDS011;7150;53.514;9.988;2022-07-29T09:02:19;2.07;;;1.23;;
14139;SDS011;7150;53.514;9.988;2022-07-29T09:04:46;1.70;;;1.00;;
14139;SDS011;7150;53.514;9.988;2022-07-29T09:07:14;1.40;;;1.20;;
14139;SDS011;7150;53.514;9.988;2022-07-29T09:09:42;1.07;;;0.93;;
14139;SDS011;7150;53.514;9.988;2022-07-29T09:12:08;0.93;;;0.83;;
14139;SDS011;7150;53.514;9.988;2022-07-29T09:14:36;2.43;;;1.10;;
14139;SDS011;7150;53.514;9.988;2022-07-29T09:17:02;1.20;;;0.90;;
14139;SDS011;7150;53.514;9.988;2022-07-29T09:19:28;1.50;;;0.97;;
14139;SDS011;7150;53.514;9.988;2022-07-29T09:21:56;1.03;;;0.87;;
14139;SDS011;7150;53.514;9.988;2022-07-29T09:24:23;2.10;;;0.97;;
14139;SDS011;7150;53.514;9.988;2022-07-29T09:26:51;1.20;;;1.10;;
14139;SDS011;7150;53.514;9.988;2022-07-29T09:29:22;0.70;;;0.70;;
14139;SDS011;7150;53.514;9.988;2022-07-29T09:31:50;1.10;;;0.80;;
14139;SDS011;7150;53.514;9.988;2022-07-29T09:34:24;1.53;;;0.90;;
14139;SDS011;7150;53.514;9.988;2022-07-29T09:36:56;1.67;;;0.93;;
14139;SDS011;7150;53.514;9.988;2022-07-29T09:39:35;0.73;;;0.70;;
14139;SDS011;7150;53.514;9.988;2022-07-29T09:42:03;1.10;;;0.97;;
14139;SDS011;7150;53.514;9.988;2022-07-29T09:44:43;1.40;;;1.00;;
14139;SDS011;7150;53.514;9.988;2022-07-29T09:47:10;1.50;;;1.03;;
14139;SDS011;7150;53.514;9.988;2022-07-29T09:49:49;0.97;;;0.87;;
14139;SDS011;7150;53.514;9.988;2022-07-29T09:52:15;1.10;;;0.97;;
14139;SDS011;7150;53.514;9.988;2022-07-29T09:54:41;1.33;;;1.03;;
14139;SDS011;7150;53.514;9.988;2022-07-29T09:57:08;2.93;;;1.00;;
14139;SDS011;7150;53.514;9.988;2022-07-29T09:59:55;1.47;;;0.67;;
14139;SDS011;7150;53.514;9.988;2022-07-29T10:02:32;0.97;;;0.90;;
14139;SDS011;7150;53.514;9.988;2022-07-29T10:04:59;0.93;;;0.70;;
14139;SDS011;7150;53.514;9.988;2022-07-29T10:07:26;2.03;;;1.00;;
14139;SDS011;7150;53.514;9.988;2022-07-29T10:10:07;1.07;;;0.83;;
14139;SDS011;7150;53.514;9.988;2022-07-29T10:12:33;1.43;;;0.93;;
14139;SDS011;7150;53.514;9.988;2022-07-29T10:14:58;1.40;;;0.90;;
14139;SDS011;7150;53.514;9.988;2022-07-29T10:17:26;1.20;;;0.80;;
14139;SDS011;7150;53.514;9.988;2022-07-29T10:19:53;1.20;;;1.07;;
14139;SDS011;7150;53.514;9.988;2022-07-29T10:22:19;0.87;;;0.80;;
14139;SDS011;7150;53.514;9.988;2022-07-29T10:24:48;1.10;;;0.80;;
14139;SDS011;7150;53.514;9.988;2022-07-29T10:27:13;1.67;;;0.70;;
14139;SDS011;7150;53.514;9.988;2022-07-29T10:29:39;1.00;;;0.80;;
14139;SDS011;7150;53.514;9.988;2022-07-29T10:38:02;1.03;;;0.67;;
14139;SDS011;7150;53.514;9.988;2022-07-29T10:43:16;0.87;;;0.80;;
14139;SDS011;7150;53.514;9.988;2022-07-29T10:45:46;0.70;;;0.70;;
14139;SDS011;7150;53.514;9.988;2022-07-29T10:48:14;0.80;;;0.80;;
14139;SDS011;7150;53.514;9.988;2022-07-29T10:53:18;1.00;;;1.00;;
14139;SDS011;7150;53.514;9.988;2022-07-29T10:55:44;1.83;;;1.10;;
14139;SDS011;7150;53.514;9.988;2022-07-29T10:58:15;1.37;;;1.10;;
14139;SDS011;7150;53.514;9.988;2022-07-29T11:00:51;1.10;;;1.00;;
14139;SDS011;7150;53.514;9.988;2022-07-29T11:06:11;0.90;;;0.90;;
14139;SDS011;7150;53.514;9.988;2022-07-29T11:08:37;1.10;;;1.00;;
14139;SDS011;7150;53.514;9.988;2022-07-29T11:13:45;1.00;;;0.90;;
14139;SDS011;7150;53.514;9.988;2022-07-29T11:16:15;0.70;;;0.70;;
14139;SDS011;7150;53.514;9.988;2022-07-29T11:21:35;1.20;;;1.03;;
14139;SDS011;7150;53.514;9.988;2022-07-29T11:24:14;0.80;;;0.70;;
14139;SDS011;7150;53.514;9.988;2022-07-29T11:27:08;1.20;;;1.00;;
14139;SDS011;7150;53.514;9.988;2022-07-29T11:29:38;1.20;;;0.90;;
14139;SDS011;7150;53.514;9.988;2022-07-29T11:32:35;0.70;;;0.60;;
14139;SDS011;7150;53.514;9.988;2022-07-29T11:38:30;0.73;;;0.70;;
14139;SDS011;7150;53.514;9.988;2022-07-29T11:43:46;0.80;;;0.80;;
14139;SDS011;7150;53.514;9.988;2022-07-29T11:46:16;1.00;;;0.80;;
14139;SDS011;7150;53.514;9.988;2022-07-29T11:49:01;0.70;;;0.70;;
14139;SDS011;7150;53.514;9.988;2022-07-29T11:51:27;1.50;;;0.80;;
14139;SDS011;7150;53.514;9.988;2022-07-29T11:53:53;1.23;;;0.80;;
14139;SDS011;7150;53.514;9.988;2022-07-29T11:56:20;0.60;;;0.60;;
14139;SDS011;7150;53.514;9.988;2022-07-29T11:58:48;1.00;;;0.90;;
14139;SDS011;7150;53.514;9.988;2022-07-29T12:01:15;2.73;;;1.10;;
14139;SDS011;7150;53.514;9.988;2022-07-29T12:03:42;1.27;;;1.00;;
14139;SDS011;7150;53.514;9.988;2022-07-29T12:06:11;1.00;;;0.90;;
14139;SDS011;7150;53.514;9.988;2022-07-29T12:08:41;3.40;;;1.00;;
14139;SDS011;7150;53.514;9.988;2022-07-29T12:11:14;0.70;;;0.70;;
14139;SDS011;7150;53.514;9.988;2022-07-29T12:13:43;1.13;;;0.80;;
14139;SDS011;7150;53.514;9.988;2022-07-29T12:16:09;2.67;;;0.97;;
14139;SDS011;7150;53.514;9.988;2022-07-29T12:18:34;1.00;;;0.90;;
14139;SDS011;7150;53.514;9.988;2022-07-29T12:21:01;1.10;;;1.00;;
14139;SDS011;7150;53.514;9.988;2022-07-29T12:23:30;1.57;;;1.00;;
14139;SDS011;7150;53.514;9.988;2022-07-29T12:25:57;2.10;;;1.10;;
14139;SDS011;7150;53.514;9.988;2022-07-29T12:28:23;1.90;;;1.60;;
14139;SDS011;7150;53.514;9.988;2022-07-29T12:30:49;1.83;;;1.40;;
14139;SDS011;7150;53.514;9.988;2022-07-29T12:33:16;1.70;;;1.47;;
14139;SDS011;7150;53.514;9.988;2022-07-29T12:35:45;1.40;;;1.30;;
14139;SDS011;7150;53.514;9.988;2022-07-29T12:38:14;1.20;;;1.10;;
14139;SDS011;7150;53.514;9.988;2022-07-29T12:40:39;2.37;;;1.10;;
14139;SDS011;7150;53.514;9.988;2022-07-29T12:43:13;0.77;;;0.77;;
14139;SDS011;7150;53.514;9.988;2022-07-29T12:45:46;0.80;;;0.80;;
14139;SDS011;7150;53.514;9.988;2022-07-29T12:51:04;1.00;;;0.80;;
14139;SDS011;7150;53.514;9.988;2022-07-29T12:53:31;1.10;;;1.00;;
14139;SDS011;7150;53.514;9.988;2022-07-29T12:55:57;1.00;;;0.80;;
14139;SDS011;7150;53.514;9.988;2022-07-29T12:58:27;0.87;;;0.80;;
14139;SDS011;7150;53.514;9.988;2022-07-29T13:01:10;0.80;;;0.70;;
14139;SDS011;7150;53.514;9.988;2022-07-29T13:03:52;1.67;;;1.10;;
14139;SDS011;7150;53.514;9.988;2022-07-29T13:09:13;1.07;;;1.00;;
14139;SDS011;7150;53.514;9.988;2022-07-29T13:11:44;2.17;;;0.90;;
14139;SDS011;7150;53.514;9.988;2022-07-29T13:17:02;0.87;;;0.80;;
14139;SDS011;7150;53.514;9.988;2022-07-29T13:19:33;1.23;;;0.87;;
14139;SDS011;7150;53.514;9.988;2022-07-29T13:21:59;1.00;;;0.80;;
14139;SDS011;7150;53.514;9.988;2022-07-29T13:24:25;1.13;;;0.83;;
14139;SDS011;7150;53.514;9.988;2022-07-29T13:26:50;1.70;;;0.80;;
14139;SDS011;7150;53.514;9.988;2022-07-29T13:29:16;1.50;;;0.73;;
14139;SDS011;7150;53.514;9.988;2022-07-29T13:31:42;1.00;;;0.80;;
14139;SDS011;7150;53.514;9.988;2022-07-29T13:34:07;1.30;;;1.00;;
14139;SDS011;7150;53.514;9.988;2022-07-29T13:36:33;0.50;;;0.50;;
14139;SDS011;7150;53.514;9.988;2022-07-29T13:38:58;1.40;;;0.83;;
14139;SDS011;7150;53.514;9.988;2022-07-29T13:41:26;0.77;;;0.70;;
14139;SDS011;7150;53.514;9.988;2022-07-29T13:43:51;0.77;;;0.73;;
14139;SDS011;7150;53.514;9.988;2022-07-29T13:46:17;0.70;;;0.60;;
14139;SDS011;7150;53.514;9.988;2022-07-29T13:48:43;0.87;;;0.80;;
14139;SDS011;7150;53.514;9.988;2022-07-29T13:51:08;0.73;;;0.70;;
14139;SDS011;7150;53.514;9.988;2022-07-29T13:53:34;0.97;;;0.93;;
14139;SDS011;7150;53.514;9.988;2022-07-29T13:55:59;1.10;;;0.77;;
14139;SDS011;7150;53.514;9.988;2022-07-29T13:58:25;1.30;;;0.77;;
14139;SDS011;7150;53.514;9.988;2022-07-29T14:00:50;0.83;;;0.63;;
14139;SDS011;7150;53.514;9.988;2022-07-29T14:03:16;1.83;;;0.83;;
14139;SDS011;7150;53.514;9.988;2022-07-29T14:05:42;1.60;;;1.10;;
14139;SDS011;7150;53.514;9.988;2022-07-29T14:08:07;3.47;;;1.00;;
14139;SDS011;7150;53.514;9.988;2022-07-29T14:10:33;0.90;;;0.90;;
14139;SDS011;7150;53.514;9.988;2022-07-29T14:12:58;2.07;;;1.10;;
14139;SDS011;7150;53.514;9.988;2022-07-29T14:15:24;2.13;;;1.10;;
14139;SDS011;7150;53.514;9.988;2022-07-29T14:17:50;1.13;;;1.00;;
14139;SDS011;7150;53.514;9.988;2022-07-29T14:20:15;0.80;;;0.80;;
14139;SDS011;7150;53.514;9.988;2022-07-29T14:22:41;1.27;;;1.17;;
14139;SDS011;7150;53.514;9.988;2022-07-29T14:25:07;0.93;;;0.90;;
14139;SDS011;7150;53.514;9.988;2022-07-29T14:27:33;1.30;;;0.90;;
14139;SDS011;7150;53.514;9.988;2022-07-29T14:29:59;2.47;;;1.10;;
14139;SDS011;7150;53.514;9.988;2022-07-29T14:32:24;2.57;;;1.10;;
14139;SDS011;7150;53.514;9.988;2022-07-29T14:34:50;1.30;;;1.00;;
14139;SDS011;7150;53.514;9.988;2022-07-29T14:37:15;2.20;;;1.20;;
14139;SDS011;7150;53.514;9.988;2022-07-29T14:39:41;2.00;;;1.30;;
14139;SDS011;7150;53.514;9.988;2022-07-29T14:42:06;1.67;;;1.20;;
14139;SDS011;7150;53.514;9.988;2022-07-29T14:44:32;1.20;;;1.10;;
14139;SDS011;7150;53.514;9.988;2022-07-29T14:46:58;1.47;;;1.10;;
14139;SDS011;7150;53.514;9.988;2022-07-29T14:49:25;1.13;;;1.03;;
14139;SDS011;7150;53.514;9.988;2022-07-29T14:51:54;1.70;;;1.30;;
14139;SDS011;7150;53.514;9.988;2022-07-29T14:54:19;1.50;;;1.30;;
14139;SDS011;7150;53.514;9.988;2022-07-29T14:56:44;1.33;;;1.23;;
14139;SDS011;7150;53.514;9.988;2022-07-29T14:59:11;1.30;;;1.10;;
14139;SDS011;7150;53.514;9.988;2022-07-29T15:01:37;2.07;;;1.37;;
14139;SDS011;7150;53.514;9.988;2022-07-29T15:04:02;1.50;;;1.03;;
14139;SDS011;7150;53.514;9.988;2022-07-29T15:06:28;1.13;;;0.97;;
14139;SDS011;7150;53.514;9.988;2022-07-29T15:08:53;1.47;;;1.10;;
14139;SDS011;7150;53.514;9.988;2022-07-29T15:11:19;1.87;;;1.20;;
14139;SDS011;7150;53.514;9.988;2022-07-29T15:13:45;1.30;;;1.20;;
14139;SDS011;7150;53.514;9.988;2022-07-29T15:16:10;2.33;;;1.50;;
14139;SDS011;7150;53.514;9.988;2022-07-29T15:18:35;1.77;;;1.47;;
14139;SDS011;7150;53.514;9.988;2022-07-29T15:21:03;3.10;;;1.30;;
14139;SDS011;7150;53.514;9.988;2022-07-29T15:23:29;3.53;;;1.90;;
14139;SDS011;7150;53.514;9.988;2022-07-29T15:25:54;1.93;;;1.73;;
14139;SDS011;7150;53.514;9.988;2022-07-29T15:28:20;2.07;;;1.30;;
14139;SDS011;7150;53.514;9.988;2022-07-29T15:30:46;2.23;;;1.30;;
14139;SDS011;7150;53.514;9.988;2022-07-29T15:33:12;1.77;;;1.33;;
14139;SDS011;7150;53.514;9.988;2022-07-29T15:35:37;1.80;;;1.20;;
14139;SDS011;7150;53.514;9.988;2022-07-29T15:38:03;2.33;;;1.40;;
14139;SDS011;7150;53.514;9.988;2022-07-29T15:40:29;2.67;;;1.30;;
14139;SDS011;7150;53.514;9.988;2022-07-29T15:42:55;1.13;;;0.97;;
14139;SDS011;7150;53.514;9.988;2022-07-29T15:45:20;1.77;;;1.10;;